createdAt,value
2023-03-22T00:01:16.034Z,18.08
2023-03-22T00:04:09.863Z,18.15
2023-03-22T00:07:03.693Z,18.11
2023-03-22T00:09:57.382Z,18.07
2023-03-22T00:12:51.027Z,18.03
2023-03-22T00:15:48.655Z,18.02
2023-03-22T00:18:41.234Z,18.04
2023-03-22T00:21:34.829Z,18.01
2023-03-22T00:24:28.513Z,18.00
2023-03-22T00:27:22.155Z,18.00
2023-03-22T00:30:17.742Z,17.98
2023-03-22T00:33:12.129Z,17.99
2023-03-22T00:36:10.147Z,18.01
2023-03-22T00:39:04.074Z,17.98
2023-03-22T00:41:59.039Z,17.96
2023-03-22T00:44:52.933Z,17.93
2023-03-22T00:47:46.685Z,17.93
2023-03-22T00:50:41.243Z,17.90
2023-03-22T00:53:36.480Z,17.89
2023-03-22T00:56:30.322Z,17.89
2023-03-22T00:59:24.659Z,17.87
2023-03-22T01:02:18.743Z,17.85
2023-03-22T01:05:15.886Z,17.85
2023-03-22T01:08:12.847Z,17.83
2023-03-22T01:11:07.470Z,17.85
2023-03-22T01:14:01.373Z,17.81
2023-03-22T01:16:57.822Z,17.82
2023-03-22T01:19:52.359Z,17.79
2023-03-22T01:22:46.639Z,17.76
2023-03-22T01:25:40.959Z,17.76
2023-03-22T01:28:35.220Z,17.74
2023-03-22T01:31:29.373Z,17.74
2023-03-22T01:34:23.484Z,17.74
2023-03-22T01:37:17.691Z,17.71
2023-03-22T01:40:15.394Z,17.70
2023-03-22T01:43:14.342Z,17.70
2023-03-22T01:46:09.330Z,17.70
2023-03-22T01:49:04.962Z,17.69
2023-03-22T01:52:05.051Z,17.67
2023-03-22T01:54:59.217Z,17.70
2023-03-22T01:57:55.843Z,17.66
2023-03-22T02:00:52.504Z,17.64
2023-03-22T02:03:54.684Z,17.63
2023-03-22T02:06:51.903Z,17.62
2023-03-22T02:09:47.583Z,17.60
2023-03-22T02:12:50.825Z,17.60
2023-03-22T02:15:56.871Z,17.58
2023-03-22T02:19:45.619Z,17.56
2023-03-22T02:23:39.055Z,17.57
2023-03-22T02:27:35.904Z,17.53
2023-03-22T02:31:14.777Z,17.52
2023-03-22T02:34:45.701Z,17.50
2023-03-22T02:38:21.955Z,17.45
2023-03-22T02:41:27.681Z,17.46
2023-03-22T02:44:33.243Z,17.45
2023-03-22T02:47:39.523Z,17.45
2023-03-22T02:50:40.349Z,17.44
2023-03-22T02:53:43.400Z,17.43
2023-03-22T02:56:44.627Z,17.42
2023-03-22T02:59:42.106Z,17.41
2023-03-22T03:02:37.145Z,17.39
2023-03-22T03:05:34.677Z,17.39
2023-03-22T03:08:29.565Z,17.38
2023-03-22T03:11:24.120Z,17.38
2023-03-22T03:14:33.706Z,17.35
2023-03-22T03:17:41.683Z,17.35
2023-03-22T03:20:52.814Z,17.34
2023-03-22T03:24:01.898Z,17.34
2023-03-22T03:26:50.277Z,17.34
2023-03-22T03:29:50.856Z,17.32
2023-03-22T03:32:53.734Z,17.33
2023-03-22T03:35:56.763Z,17.31
2023-03-22T03:38:57.769Z,17.30
2023-03-22T03:41:57.053Z,17.32
2023-03-22T03:44:51.336Z,17.30
2023-03-22T03:47:55.722Z,17.30
2023-03-22T03:50:52.344Z,17.26
2023-03-22T03:53:47.175Z,17.24
2023-03-22T03:56:41.579Z,17.23
2023-03-22T03:59:35.886Z,17.18
2023-03-22T04:02:30.143Z,17.17
2023-03-22T04:05:24.552Z,17.19
2023-03-22T04:08:18.572Z,17.18
2023-03-22T04:11:13.061Z,17.18
2023-03-22T04:14:07.442Z,17.17
2023-03-22T04:17:01.286Z,17.18
2023-03-22T04:19:57.188Z,17.14
2023-03-22T04:22:52.721Z,17.11
2023-03-22T04:25:50.048Z,17.15
2023-03-22T04:28:44.509Z,17.18
2023-03-22T04:31:39.275Z,17.13
2023-03-22T04:34:33.455Z,17.10
2023-03-22T04:37:18.969Z,17.20
2023-03-22T04:40:18.356Z,17.25
2023-03-22T04:43:13.789Z,17.19
2023-03-22T04:46:12.885Z,17.12
2023-03-22T04:49:09.351Z,17.16
2023-03-22T04:52:04.095Z,17.16
2023-03-22T04:54:58.088Z,17.13
2023-03-22T04:57:54.709Z,17.13
2023-03-22T05:00:52.746Z,17.15
2023-03-22T05:03:47.988Z,17.11
2023-03-22T05:06:42.895Z,17.13
2023-03-22T05:09:36.954Z,17.12
2023-03-22T05:12:30.864Z,17.14
2023-03-22T05:15:25.076Z,17.15
2023-03-22T05:18:20.544Z,17.10
2023-03-22T05:21:22.090Z,17.09
2023-03-22T05:24:16.524Z,16.97
2023-03-22T05:27:10.965Z,16.99
2023-03-22T05:30:05.999Z,17.00
2023-03-22T05:33:04.531Z,17.09
2023-03-22T05:35:59.081Z,17.08
2023-03-22T05:38:53.219Z,17.09
2023-03-22T05:41:47.572Z,17.09
2023-03-22T05:44:41.850Z,17.12
2023-03-22T05:47:36.202Z,17.12
2023-03-22T05:50:30.620Z,17.06
2023-03-22T05:53:25.024Z,17.03
2023-03-22T05:56:22.008Z,17.05
2023-03-22T05:59:16.102Z,17.03
2023-03-22T06:02:09.843Z,17.09
2023-03-22T06:05:03.813Z,17.00
2023-03-22T06:07:57.612Z,17.03
2023-03-22T06:10:55.108Z,17.04
2023-03-22T06:13:49.358Z,17.02
2023-03-22T06:16:43.238Z,17.02
2023-03-22T06:19:37.444Z,17.03
2023-03-22T06:22:33.593Z,17.04
2023-03-22T06:25:27.716Z,17.06
2023-03-22T06:28:21.915Z,17.03
2023-03-22T06:31:15.889Z,17.01
2023-03-22T06:34:10.062Z,17.03
2023-03-22T06:37:04.071Z,17.00
2023-03-22T06:39:57.805Z,17.01
2023-03-22T06:42:52.211Z,17.00
2023-03-22T06:45:46.912Z,16.93
2023-03-22T06:49:07.996Z,16.98
2023-03-22T06:52:02.029Z,17.09
2023-03-22T06:54:56.901Z,17.10
2023-03-22T06:57:51.356Z,17.39
2023-03-22T07:00:45.386Z,17.30
2023-03-22T07:03:39.508Z,17.26
2023-03-22T07:06:33.607Z,17.26
2023-03-22T07:09:28.863Z,17.18
2023-03-22T07:12:22.980Z,17.08
2023-03-22T07:15:20.039Z,17.23
2023-03-22T07:18:13.788Z,17.33
2023-03-22T07:21:08.144Z,17.33
2023-03-22T07:24:01.981Z,17.28
2023-03-22T07:26:56.502Z,17.23
2023-03-22T07:29:50.417Z,17.16
2023-03-22T07:32:45.523Z,17.16
2023-03-22T07:35:40.458Z,17.11
2023-03-22T07:38:34.152Z,17.18
2023-03-22T07:41:30.654Z,14.23
2023-03-22T07:44:25.196Z,15.43
2023-03-22T07:47:30.582Z,16.77
2023-03-22T07:50:28.633Z,17.08
2023-03-22T07:53:22.488Z,17.21
2023-03-22T07:56:16.527Z,17.10
2023-03-22T07:59:10.866Z,17.05
2023-03-22T08:02:04.931Z,17.14
2023-03-22T08:04:59.092Z,17.11
2023-03-22T08:07:54.334Z,17.06
2023-03-22T08:10:52.507Z,17.05
2023-03-22T08:13:46.424Z,17.15
2023-03-22T08:16:41.613Z,17.03
2023-03-22T08:19:36.333Z,17.06
2023-03-22T08:22:30.481Z,17.06
2023-03-22T08:25:24.794Z,17.14
2023-03-22T08:28:20.094Z,17.06
2023-03-22T08:31:18.594Z,17.10
2023-03-22T08:34:12.655Z,17.16
2023-03-22T08:37:08.509Z,17.30
2023-03-22T08:40:06.489Z,17.24
2023-03-22T08:43:00.550Z,17.10
2023-03-22T08:45:54.641Z,17.06
2023-03-22T08:48:51.128Z,17.06
2023-03-22T08:51:28.932Z,17.08
2023-03-22T08:54:23.488Z,17.08
2023-03-22T08:57:17.848Z,17.05
2023-03-22T09:00:17.492Z,17.13
2023-03-22T09:03:11.247Z,17.10
2023-03-22T09:06:05.760Z,17.07
2023-03-22T09:08:59.830Z,17.09
2023-03-22T09:11:54.688Z,17.07
2023-03-22T09:14:50.319Z,17.18
2023-03-22T09:17:44.758Z,17.13
2023-03-22T09:20:39.183Z,17.16
2023-03-22T09:23:34.224Z,16.57
2023-03-22T09:26:13.686Z,16.58
2023-03-22T09:29:08.337Z,16.97
2023-03-22T09:32:02.309Z,17.06
2023-03-22T09:34:56.347Z,17.17
2023-03-22T09:37:53.445Z,15.53
2023-03-22T09:41:00.425Z,14.83
2023-03-22T09:43:58.607Z,14.59
2023-03-22T09:47:00.033Z,14.86
2023-03-22T09:50:04.669Z,15.48
2023-03-22T09:52:59.207Z,16.56
2023-03-22T09:56:01.367Z,16.79
2023-03-22T09:59:02.955Z,16.94
2023-03-22T10:02:02.591Z,16.92
2023-03-22T10:05:11.051Z,17.01
2023-03-22T10:08:32.257Z,17.09
2023-03-22T10:11:39.180Z,17.17
2023-03-22T10:14:40.617Z,17.14
2023-03-22T10:17:37.547Z,17.08
2023-03-22T10:20:41.279Z,17.12
2023-03-22T10:23:42.924Z,17.16
2023-03-22T10:26:43.380Z,17.31
2023-03-22T10:29:43.884Z,17.34
2023-03-22T10:32:56.768Z,17.28
2023-03-22T10:35:52.935Z,17.24
2023-03-22T10:38:51.263Z,17.29
2023-03-22T10:41:46.479Z,17.29
2023-03-22T10:44:49.549Z,17.27
2023-03-22T10:47:36.218Z,17.35
2023-03-22T10:50:33.496Z,17.37
2023-03-22T10:53:38.453Z,17.38
2023-03-22T10:56:33.091Z,17.35
2023-03-22T10:59:52.522Z,17.35
2023-03-22T11:02:59.311Z,17.44
2023-03-22T11:06:03.446Z,17.52
2023-03-22T11:09:02.473Z,17.51
2023-03-22T11:11:59.227Z,17.58
2023-03-22T11:14:53.944Z,17.54
2023-03-22T11:17:48.448Z,17.53
2023-03-22T11:20:55.779Z,17.46
2023-03-22T11:23:59.519Z,17.40
2023-03-22T11:27:18.326Z,17.54
2023-03-22T11:30:38.391Z,17.56
2023-03-22T11:33:56.695Z,17.48
2023-03-22T11:36:56.500Z,17.51
2023-03-22T11:39:52.337Z,17.50
2023-03-22T11:42:47.031Z,17.45
2023-03-22T11:45:45.329Z,17.56
2023-03-22T11:48:41.938Z,17.52
2023-03-22T11:51:39.448Z,17.44
2023-03-22T11:54:38.175Z,17.50
2023-03-22T11:57:35.363Z,17.52
2023-03-22T12:00:20.738Z,17.32
2023-03-22T12:03:21.495Z,17.47
2023-03-22T12:06:28.089Z,17.52
2023-03-22T12:09:36.516Z,17.48
2023-03-22T12:12:36.718Z,17.39
2023-03-22T12:15:34.897Z,17.44
2023-03-22T12:18:35.455Z,17.58
2023-03-22T12:21:30.494Z,17.52
2023-03-22T12:24:33.174Z,17.55
2023-03-22T12:27:34.172Z,17.49
2023-03-22T12:30:33.804Z,17.47
2023-03-22T12:33:32.202Z,17.48
2023-03-22T12:36:33.261Z,17.37
2023-03-22T12:39:33.865Z,17.37
2023-03-22T12:42:40.666Z,17.47
2023-03-22T12:45:40.721Z,17.48
2023-03-22T12:48:40.868Z,17.49
2023-03-22T12:51:34.508Z,17.43
2023-03-22T12:54:29.816Z,17.47
2023-03-22T12:57:23.632Z,17.48
2023-03-22T13:00:21.397Z,17.50
2023-03-22T13:03:28.805Z,17.38
2023-03-22T13:06:59.617Z,17.46
2023-03-22T13:09:53.649Z,17.46
2023-03-22T13:13:15.882Z,17.40
2023-03-22T13:16:43.450Z,17.25
2023-03-22T13:19:52.662Z,17.13
2023-03-22T13:23:11.030Z,17.19
2023-03-22T13:26:06.896Z,17.27
2023-03-22T13:29:12.251Z,17.31
2023-03-22T13:32:28.537Z,17.26
2023-03-22T13:35:29.443Z,17.32
2023-03-22T13:38:28.208Z,17.27
2023-03-22T13:41:29.733Z,17.32
2023-03-22T13:44:36.898Z,17.30
2023-03-22T13:47:44.445Z,17.29
2023-03-22T13:50:39.982Z,17.32
2023-03-22T13:53:37.741Z,17.28
2023-03-22T13:56:52.643Z,17.30
2023-03-22T14:00:14.416Z,17.28
2023-03-22T14:03:32.732Z,17.33
2023-03-22T14:06:20.563Z,17.35
2023-03-22T14:09:23.901Z,17.22
2023-03-22T14:12:23.812Z,17.31
2023-03-22T14:15:22.535Z,17.32
2023-03-22T14:18:25.920Z,17.34
2023-03-22T14:21:26.677Z,17.25
